Time;durP1;ratioP1;P1;durP2;ratioP2;P2;SDS_P1;SDS_P2;PMS_P1;PMS_P2;Temp;Humidity;BMP_temperature;BMP_pressure;BME280_temperature;BME280_humidity;BME280_pressure;Samples;Min_cycle;Max_cycle;Signal;HPM_P1;HPM_P2
2023/09/04 00:02:06;;;;;;;8.00;3.92;;;;;;;;;;5015006;28;20460;-71
2023/09/04 00:04:32;;;;;;;9.35;3.83;;;;;;;;;;5014908;28;20078;-72
2023/09/04 00:06:58;;;;;;;11.48;5.18;;;;;;;;;;5014612;28;20025;-71
2023/09/04 00:09:23;;;;;;;11.10;4.57;;;;;;;;;;5014524;28;20045;-71
2023/09/04 00:11:49;;;;;;;12.88;4.78;;;;;;;;;;5014839;28;20022;-71
2023/09/04 00:14:16;;;;;;;12.85;4.45;;;;;;;;;;5014702;28;20048;-72
2023/09/04 00:16:42;;;;;;;11.30;4.13;;;;;;;;;;5022137;28;20038;-72
2023/09/04 00:19:08;;;;;;;10.32;4.10;;;;;;;;;;5025401;28;20033;-71
2023/09/04 00:21:34;;;;;;;14.00;4.13;;;;;;;;;;5034192;28;20029;-73
2023/09/04 00:24:00;;;;;;;11.00;3.90;;;;;;;;;;5034162;28;20044;-72
2023/09/04 00:26:25;;;;;;;7.78;4.22;;;;;;;;;;5025929;28;20021;-72
2023/09/04 00:28:51;;;;;;;9.25;4.07;;;;;;;;;;5017030;28;20030;-72
2023/09/04 00:31:17;;;;;;;10.25;4.50;;;;;;;;;;5014353;28;20045;-71
2023/09/04 00:33:43;;;;;;;6.90;3.78;;;;;;;;;;5013010;28;20443;-72
2023/09/04 00:36:08;;;;;;;7.45;4.25;;;;;;;;;;5013031;28;20026;-72
2023/09/04 00:38:34;;;;;;;7.68;4.32;;;;;;;;;;5029430;28;20041;-72
2023/09/04 00:41:00;;;;;;;6.13;3.80;;;;;;;;;;5021129;28;20025;-72
2023/09/04 00:43:34;;;;;;;17.27;4.90;;;;;;;;;;5026320;28;20074;-71
2023/09/04 00:46:00;;;;;;;7.05;4.00;;;;;;;;;;5018868;28;20038;-71
2023/09/04 00:48:26;;;;;;;8.60;4.13;;;;;;;;;;4998173;28;20113;-71
2023/09/04 00:50:52;;;;;;;6.03;3.65;;;;;;;;;;5008598;28;20033;-71
2023/09/04 00:53:18;;;;;;;7.63;5.00;;;;;;;;;;5015087;28;20048;-71
2023/09/04 00:55:47;;;;;;;9.38;4.05;;;;;;;;;;5011914;28;20407;-71
2023/09/04 00:58:12;;;;;;;8.35;4.05;;;;;;;;;;5011169;28;20130;-70
2023/09/04 01:00:38;;;;;;;12.45;4.35;;;;;;;;;;5011263;28;20132;-71
2023/09/04 01:03:04;;;;;;;10.77;4.78;;;;;;;;;;5012844;28;20026;-70
2023/09/04 01:05:32;;;;;;;7.57;4.45;;;;;;;;;;5012539;28;20484;-71
2023/09/04 01:08:02;;;;;;;5.55;3.80;;;;;;;;;;5012534;28;20025;-72
2023/09/04 01:10:34;;;;;;;9.90;3.60;;;;;;;;;;5026024;28;20049;-71
2023/09/04 01:13:16;;;;;;;8.57;3.90;;;;;;;;;;5028302;28;20403;-71
2023/09/04 01:15:43;;;;;;;6.53;3.83;;;;;;;;;;5011961;28;20033;-71
2023/09/04 01:18:09;;;;;;;7.05;4.07;;;;;;;;;;5013048;28;20071;-71
2023/09/04 01:20:36;;;;;;;7.78;4.47;;;;;;;;;;5011892;28;20037;-71
2023/09/04 01:23:01;;;;;;;7.95;4.40;;;;;;;;;;5012937;28;20506;-71
2023/09/04 01:26:07;;;;;;;9.82;3.88;;;;;;;;;;5011810;28;20037;-71
2023/09/04 01:28:45;;;;;;;8.55;4.07;;;;;;;;;;5017599;28;20137;-71
2023/09/04 01:31:22;;;;;;;6.68;4.15;;;;;;;;;;5011528;28;20042;-71
2023/09/04 01:33:57;;;;;;;10.32;5.00;;;;;;;;;;5011460;28;20454;-72
2023/09/04 01:36:29;;;;;;;13.65;4.72;;;;;;;;;;5025476;28;20026;-71
2023/09/04 01:38:55;;;;;;;7.22;3.95;;;;;;;;;;5024621;28;20045;-71
2023/09/04 01:41:20;;;;;;;8.73;4.32;;;;;;;;;;4992151;28;20027;-71
2023/09/04 01:43:46;;;;;;;7.25;4.32;;;;;;;;;;4993082;28;20457;-72
2023/09/04 01:46:12;;;;;;;6.82;4.00;;;;;;;;;;5024581;28;20034;-71
2023/09/04 01:48:38;;;;;;;8.18;4.20;;;;;;;;;;5024605;28;20042;-71
2023/09/04 01:51:03;;;;;;;11.85;4.65;;;;;;;;;;4991440;28;20084;-71
2023/09/04 01:53:29;;;;;;;10.63;4.38;;;;;;;;;;4993209;28;20035;-73
2023/09/04 01:55:55;;;;;;;7.63;4.13;;;;;;;;;;4992708;28;20049;-71
2023/09/04 01:58:21;;;;;;;8.43;4.18;;;;;;;;;;5024648;28;20057;-71
2023/09/04 02:00:47;;;;;;;12.60;4.63;;;;;;;;;;4991796;28;20536;-71
2023/09/04 02:03:13;;;;;;;11.82;4.38;;;;;;;;;;4993121;28;20046;-71
2023/09/04 02:05:39;;;;;;;9.55;3.90;;;;;;;;;;4991673;28;20037;-71
2023/09/04 02:08:07;;;;;;;6.18;3.90;;;;;;;;;;5024027;28;20489;-71
2023/09/04 02:10:36;;;;;;;8.60;3.70;;;;;;;;;;5024480;28;20106;-71
2023/09/04 02:13:02;;;;;;;10.88;3.80;;;;;;;;;;4991525;28;20042;-71
2023/09/04 02:15:31;;;;;;;7.45;3.97;;;;;;;;;;4991639;28;20092;-71
2023/09/04 02:18:01;;;;;;;7.43;3.55;;;;;;;;;;5023913;28;20042;-72
2023/09/04 02:20:29;;;;;;;11.18;4.03;;;;;;;;;;5023970;28;20049;-72
2023/09/04 02:22:54;;;;;;;9.63;4.10;;;;;;;;;;4992192;28;20499;-71
2023/09/04 02:25:20;;;;;;;5.80;4.03;;;;;;;;;;4992937;28;20038;-71
2023/09/04 02:27:46;;;;;;;7.90;3.70;;;;;;;;;;4990858;28;20396;-71
2023/09/04 02:30:12;;;;;;;7.20;4.10;;;;;;;;;;4992295;28;20034;-71
2023/09/04 02:32:38;;;;;;;8.15;4.13;;;;;;;;;;4992337;28;20030;-71
2023/09/04 02:35:04;;;;;;;6.03;3.75;;;;;;;;;;5007153;28;20039;-71
2023/09/04 02:37:29;;;;;;;10.50;4.30;;;;;;;;;;4990869;28;20033;-71
2023/09/04 02:39:56;;;;;;;9.55;4.47;;;;;;;;;;5023669;28;20038;-70
2023/09/04 02:42:21;;;;;;;14.05;4.75;;;;;;;;;;4990868;28;20034;-71
2023/09/04 02:44:47;;;;;;;11.95;4.57;;;;;;;;;;4992123;28;20571;-70
2023/09/04 02:47:13;;;;;;;13.60;5.53;;;;;;;;;;5007254;28;20034;-72
2023/09/04 02:49:39;;;;;;;17.33;5.00;;;;;;;;;;4992227;28;20289;-71
2023/09/04 02:52:04;;;;;;;12.77;4.97;;;;;;;;;;4992024;28;20026;-71
2023/09/04 02:54:30;;;;;;;14.70;4.97;;;;;;;;;;5023573;28;20034;-71
2023/09/04 02:56:56;;;;;;;10.82;5.13;;;;;;;;;;4992035;28;20026;-71
2023/09/04 02:59:22;;;;;;;10.32;4.72;;;;;;;;;;4990767;28;20056;-72
2023/09/04 03:01:50;;;;;;;11.88;4.95;;;;;;;;;;4992065;28;20029;-71
2023/09/04 03:04:17;;;;;;;6.22;4.20;;;;;;;;;;5023311;28;20062;-71
2023/09/04 03:06:42;;;;;;;10.13;5.28;;;;;;;;;;4992166;28;20068;-70
2023/09/04 03:09:08;;;;;;;10.18;4.57;;;;;;;;;;5023522;28;20125;-70
2023/09/04 03:11:34;;;;;;;7.90;5.03;;;;;;;;;;4990636;28;20563;-71
2023/09/04 03:14:00;;;;;;;11.98;4.65;;;;;;;;;;4991756;28;20034;-70
2023/09/04 03:16:27;;;;;;;11.30;4.50;;;;;;;;;;4990278;28;20113;-70
2023/09/04 03:18:54;;;;;;;14.02;5.03;;;;;;;;;;4991732;28;20376;-71
2023/09/04 03:21:20;;;;;;;9.30;5.57;;;;;;;;;;4990553;28;20145;-71
2023/09/04 03:23:47;;;;;;;12.52;5.90;;;;;;;;;;5026415;28;20491;-71
2023/09/04 03:26:13;;;;;;;7.65;4.13;;;;;;;;;;5028764;28;20034;-72
2023/09/04 03:28:39;;;;;;;10.45;4.70;;;;;;;;;;5013431;28;20455;-71
2023/09/04 03:31:13;;;;;;;13.77;4.70;;;;;;;;;;5029680;28;20037;-72
2023/09/04 03:33:38;;;;;;;;;;;;;;;;;;5015413;28;20526;-71
2023/09/04 03:36:04;;;;;;;8.93;4.60;;;;;;;;;;5012932;28;19944;-72
2023/09/04 03:38:30;;;;;;;9.25;4.63;;;;;;;;;;5013445;28;20029;-70
2023/09/04 03:40:56;;;;;;;8.65;5.10;;;;;;;;;;5029737;28;20044;-70
2023/09/04 03:43:22;;;;;;;8.30;4.57;;;;;;;;;;5012972;28;20072;-69
2023/09/04 03:45:48;;;;;;;13.88;4.95;;;;;;;;;;5012748;28;20112;-70
2023/09/04 03:48:14;;;;;;;11.43;5.10;;;;;;;;;;5014683;28;20446;-72
2023/09/04 03:50:40;;;;;;;8.13;4.90;;;;;;;;;;5012942;28;20024;-71
2023/09/04 03:53:06;;;;;;;12.02;5.55;;;;;;;;;;5013877;28;20038;-72
2023/09/04 03:55:32;;;;;;;11.50;5.38;;;;;;;;;;5013344;28;20083;-71
2023/09/04 03:57:58;;;;;;;14.35;4.55;;;;;;;;;;5004464;28;20025;-71
2023/09/04 04:00:25;;;;;;;6.85;4.25;;;;;;;;;;5010942;28;20030;-71
2023/09/04 04:02:53;;;;;;;11.35;4.85;;;;;;;;;;5028154;28;20163;-72
2023/09/04 04:05:20;;;;;;;16.42;5.43;;;;;;;;;;5025327;28;20087;-71
2023/09/04 04:07:46;;;;;;;12.38;5.03;;;;;;;;;;5020317;28;20038;-69
2023/09/04 04:10:12;;;;;;;20.48;4.78;;;;;;;;;;5010193;28;20103;-72
2023/09/04 04:12:38;;;;;;;10.77;4.50;;;;;;;;;;4999611;28;20038;-73
2023/09/04 04:15:06;;;;;;;17.33;5.18;;;;;;;;;;4990625;28;20030;-73
2023/09/04 04:17:33;;;;;;;9.25;4.53;;;;;;;;;;4990149;28;20026;-70
2023/09/04 04:19:59;;;;;;;12.88;4.50;;;;;;;;;;5005241;28;20030;-70
2023/09/04 04:22:25;;;;;;;9.07;4.47;;;;;;;;;;4990356;28;20038;-71
2023/09/04 04:24:51;;;;;;;14.25;4.50;;;;;;;;;;4988921;28;20117;-71
2023/09/04 04:27:17;;;;;;;23.65;5.03;;;;;;;;;;4991912;28;20073;-70
2023/09/04 04:29:48;;;;;;;13.05;4.20;;;;;;;;;;4988817;28;20414;-72
2023/09/04 04:32:14;;;;;;;13.15;4.47;;;;;;;;;;5005419;28;20035;-72
2023/09/04 04:34:41;;;;;;;8.00;3.65;;;;;;;;;;4988666;28;20022;-73
2023/09/04 04:37:10;;;;;;;29.63;5.47;;;;;;;;;;4988169;28;20034;-71
2023/09/04 04:39:37;;;;;;;5.85;4.35;;;;;;;;;;5005092;28;20140;-71
2023/09/04 04:42:03;;;;;;;12.93;4.28;;;;;;;;;;5010093;28;20500;-70
2023/09/04 04:44:30;;;;;;;10.10;4.53;;;;;;;;;;5009414;28;20025;-71
2023/09/04 04:46:56;;;;;;;9.75;4.03;;;;;;;;;;5007829;28;20116;-71
2023/09/04 04:49:23;;;;;;;8.07;4.03;;;;;;;;;;5011079;28;20508;-70
2023/09/04 04:51:50;;;;;;;17.48;4.05;;;;;;;;;;5012832;28;20038;-71
2023/09/04 04:54:19;;;;;;;5.35;3.75;;;;;;;;;;5011962;28;20025;-71
2023/09/04 04:56:49;;;;;;;13.50;4.13;;;;;;;;;;5028133;28;20030;-70
2023/09/04 04:59:16;;;;;;;12.82;3.60;;;;;;;;;;5011963;28;20503;-71
2023/09/04 05:01:43;;;;;;;15.65;4.18;;;;;;;;;;5028160;28;20125;-72
2023/09/04 05:04:09;;;;;;;11.05;3.92;;;;;;;;;;5013302;28;20046;-72
2023/09/04 05:06:35;;;;;;;12.30;3.90;;;;;;;;;;5028214;28;20053;-72
2023/09/04 05:09:01;;;;;;;7.40;4.05;;;;;;;;;;5028192;28;20523;-70
2023/09/04 05:11:27;;;;;;;9.18;3.85;;;;;;;;;;5011818;28;20380;-71
2023/09/04 05:13:53;;;;;;;6.60;3.00;;;;;;;;;;5013334;28;20442;-71
2023/09/04 05:16:19;;;;;;;6.93;3.30;;;;;;;;;;5013801;28;20044;-71
2023/09/04 05:18:46;;;;;;;12.23;3.28;;;;;;;;;;5028565;28;20021;-71
2023/09/04 05:21:12;;;;;;;4.90;3.20;;;;;;;;;;5012843;28;20030;-73
2023/09/04 05:23:38;;;;;;;6.63;3.20;;;;;;;;;;5010856;28;20075;-71
2023/09/04 05:26:04;;;;;;;5.63;3.35;;;;;;;;;;5025250;28;20029;-72
2023/09/04 05:28:30;;;;;;;6.07;3.10;;;;;;;;;;5036068;28;20115;-72
2023/09/04 05:31:04;;;;;;;6.65;3.45;;;;;;;;;;5020276;28;20038;-72
2023/09/04 05:33:30;;;;;;;9.18;4.05;;;;;;;;;;5014609;28;20115;-72
2023/09/04 05:35:56;;;;;;;13.90;3.85;;;;;;;;;;5009332;28;20507;-73
2023/09/04 05:38:23;;;;;;;8.57;3.55;;;;;;;;;;5020451;28;20097;-71
2023/09/04 05:40:55;;;;;;;21.23;4.68;;;;;;;;;;5009000;28;20025;-71
2023/09/04 05:43:22;;;;;;;14.98;3.50;;;;;;;;;;5014889;28;20069;-71
2023/09/04 05:45:48;;;;;;;24.33;5.10;;;;;;;;;;5028762;28;20049;-72
2023/09/04 05:48:14;;;;;;;11.38;4.35;;;;;;;;;;5024024;28;20116;-73
2023/09/04 05:50:39;;;;;;;17.33;4.10;;;;;;;;;;5021689;28;20455;-72
2023/09/04 05:53:05;;;;;;;16.05;4.30;;;;;;;;;;5019620;28;20037;-71
2023/09/04 05:55:36;;;;;;;8.10;3.72;;;;;;;;;;5017674;28;20341;-72
2023/09/04 05:58:02;;;;;;;7.75;3.28;;;;;;;;;;5015093;28;20112;-71
2023/09/04 06:00:28;;;;;;;17.25;4.07;;;;;;;;;;5029439;28;20021;-71
2023/09/04 06:02:56;;;;;;;9.65;3.67;;;;;;;;;;5022424;28;20399;-70
2023/09/04 06:05:24;;;;;;;10.20;3.70;;;;;;;;;;5021809;28;20653;-71
2023/09/04 06:07:50;;;;;;;12.77;3.63;;;;;;;;;;5010791;28;20030;-68
2023/09/04 06:10:16;;;;;;;10.90;3.83;;;;;;;;;;5010850;28;20033;-69
2023/09/04 06:12:41;;;;;;;7.18;3.38;;;;;;;;;;4998989;28;20056;-72
2023/09/04 06:15:07;;;;;;;13.05;3.67;;;;;;;;;;5007369;28;20022;-71
2023/09/04 06:17:33;;;;;;;12.00;4.22;;;;;;;;;;5019276;28;20041;-70
2023/09/04 06:19:59;;;;;;;20.25;4.57;;;;;;;;;;5013560;28;20014;-69
2023/09/04 06:22:24;;;;;;;16.33;4.43;;;;;;;;;;4993554;28;20112;-73
2023/09/04 06:24:50;;;;;;;21.42;5.07;;;;;;;;;;5013300;28;20014;-73
2023/09/04 06:27:16;;;;;;;7.25;4.15;;;;;;;;;;5011234;28;20036;-73
2023/09/04 06:29:41;;;;;;;7.85;4.57;;;;;;;;;;5015843;28;20444;-74
2023/09/04 06:32:07;;;;;;;9.70;4.72;;;;;;;;;;5015162;28;20029;-73
2023/09/04 06:34:33;;;;;;;8.90;5.00;;;;;;;;;;5017976;28;21052;-73
2023/09/04 06:36:59;;;;;;;6.85;4.70;;;;;;;;;;5009146;28;20029;-73
2023/09/04 06:39:24;;;;;;;9.15;4.28;;;;;;;;;;5011852;28;20108;-72
2023/09/04 06:41:50;;;;;;;6.20;4.78;;;;;;;;;;5019521;28;20483;-70
2023/09/04 06:44:18;;;;;;;6.13;4.50;;;;;;;;;;5011106;28;20109;-73
2023/09/04 06:46:44;;;;;;;9.05;4.32;;;;;;;;;;5033993;28;20137;-72
2023/09/04 06:49:11;;;;;;;7.43;4.43;;;;;;;;;;5019059;28;20124;-72
2023/09/04 06:51:36;;;;;;;7.78;4.85;;;;;;;;;;5011277;28;20117;-73
2023/09/04 06:54:03;;;;;;;7.70;4.68;;;;;;;;;;5026404;28;20080;-73
2023/09/04 06:56:30;;;;;;;8.60;4.20;;;;;;;;;;5003528;28;20087;-73
2023/09/04 06:58:56;;;;;;;5.70;4.70;;;;;;;;;;5013866;28;20022;-73
2023/09/04 07:01:22;;;;;;;7.47;4.72;;;;;;;;;;5020366;28;20037;-72
2023/09/04 07:03:48;;;;;;;8.00;4.70;;;;;;;;;;5026336;28;20021;-73
2023/09/04 07:06:13;;;;;;;5.78;4.15;;;;;;;;;;5025737;28;20120;-74
2023/09/04 07:08:39;;;;;;;7.80;4.78;;;;;;;;;;5019805;28;20176;-72
2023/09/04 07:11:05;;;;;;;7.25;5.00;;;;;;;;;;5016672;28;20044;-73
2023/09/04 07:13:31;;;;;;;5.38;4.60;;;;;;;;;;5024741;28;20032;-75
2023/09/04 07:15:56;;;;;;;7.38;5.28;;;;;;;;;;5023420;28;20061;-73
2023/09/04 07:18:22;;;;;;;6.18;4.93;;;;;;;;;;5023324;28;20052;-76
2023/09/04 07:20:48;;;;;;;8.35;5.03;;;;;;;;;;5007512;28;20408;-73
2023/09/04 07:23:14;;;;;;;8.65;5.60;;;;;;;;;;5024459;28;20124;-72
2023/09/04 07:25:40;;;;;;;7.63;5.30;;;;;;;;;;5002792;28;20026;-70
2023/09/04 07:28:06;;;;;;;11.13;5.82;;;;;;;;;;5012684;28;20018;-72
2023/09/04 07:30:32;;;;;;;7.32;5.20;;;;;;;;;;5025514;28;20056;-73
2023/09/04 07:32:57;;;;;;;6.00;5.35;;;;;;;;;;5019913;28;20031;-71
2023/09/04 07:35:23;;;;;;;6.05;5.13;;;;;;;;;;5024679;28;20033;-72
2023/09/04 07:37:49;;;;;;;8.18;5.32;;;;;;;;;;5014012;28;20030;-72
2023/09/04 07:40:14;;;;;;;7.38;5.30;;;;;;;;;;5022838;28;20065;-70
2023/09/04 07:42:42;;;;;;;6.90;5.20;;;;;;;;;;5025459;28;20048;-71
2023/09/04 07:45:09;;;;;;;9.05;5.28;;;;;;;;;;5014509;28;20030;-73
2023/09/04 07:47:35;;;;;;;6.35;4.43;;;;;;;;;;5023721;28;20084;-73
2023/09/04 07:50:02;;;;;;;6.78;4.43;;;;;;;;;;5025881;28;20436;-72
2023/09/04 07:52:28;;;;;;;7.13;5.05;;;;;;;;;;5023440;28;20028;-70
2023/09/04 07:54:55;;;;;;;13.68;6.03;;;;;;;;;;4994524;28;20030;-74
2023/09/04 07:57:21;;;;;;;12.27;4.85;;;;;;;;;;5010366;28;20087;-72
2023/09/04 07:59:47;;;;;;;6.63;4.88;;;;;;;;;;5025509;28;20445;-72
2023/09/04 08:02:13;;;;;;;5.43;4.70;;;;;;;;;;5024959;28;20523;-73
2023/09/04 08:04:39;;;;;;;13.90;5.22;;;;;;;;;;5012091;28;20112;-74
2023/09/04 08:07:05;;;;;;;10.57;5.10;;;;;;;;;;5031702;28;20471;-74
2023/09/04 08:09:31;;;;;;;11.45;5.22;;;;;;;;;;5040162;28;20033;-71
2023/09/04 08:11:56;;;;;;;8.52;4.40;;;;;;;;;;5023526;28;20525;-71
2023/09/04 08:14:22;;;;;;;10.18;5.00;;;;;;;;;;5024456;28;20044;-73
2023/09/04 08:16:48;;;;;;;10.05;5.43;;;;;;;;;;5025820;28;20023;-73
2023/09/04 08:19:14;;;;;;;12.07;4.97;;;;;;;;;;5024292;28;20037;-73
2023/09/04 08:21:39;;;;;;;8.80;5.22;;;;;;;;;;5022411;28;20028;-73
2023/09/04 08:24:05;;;;;;;5.55;4.93;;;;;;;;;;5013616;28;20037;-72
2023/09/04 08:26:31;;;;;;;6.22;4.95;;;;;;;;;;5012612;28;20026;-73
2023/09/04 08:28:57;;;;;;;5.47;4.70;;;;;;;;;;5012131;28;20084;-72
2023/09/04 08:31:22;;;;;;;6.63;4.93;;;;;;;;;;5032188;28;20139;-73
2023/09/04 08:33:48;;;;;;;6.57;4.68;;;;;;;;;;5023120;28;20504;-73
2023/09/04 08:36:14;;;;;;;8.63;5.40;;;;;;;;;;5033450;28;20391;-73
2023/09/04 08:38:40;;;;;;;6.00;4.70;;;;;;;;;;5033051;28;20124;-72
2023/09/04 08:41:08;;;;;;;4.78;4.28;;;;;;;;;;5031980;28;20116;-73
2023/09/04 08:43:36;;;;;;;6.00;3.90;;;;;;;;;;5033193;28;20041;-72
2023/09/04 08:46:05;;;;;;;4.80;3.92;;;;;;;;;;5032506;28;20064;-72
2023/09/04 08:48:33;;;;;;;5.30;3.47;;;;;;;;;;5032052;28;20037;-73
2023/09/04 08:50:59;;;;;;;3.40;3.03;;;;;;;;;;5031593;28;20025;-73
2023/09/04 08:53:26;;;;;;;4.80;3.80;;;;;;;;;;5031807;28;20048;-73
2023/09/04 08:55:53;;;;;;;3.78;3.38;;;;;;;;;;5030998;28;20025;-73
2023/09/04 08:58:20;;;;;;;5.30;3.55;;;;;;;;;;5032725;28;20052;-73
2023/09/04 09:00:47;;;;;;;6.18;3.63;;;;;;;;;;5033425;28;20483;-74
2023/09/04 09:03:14;;;;;;;6.22;3.53;;;;;;;;;;5033128;28;20037;-74
2023/09/04 09:05:42;;;;;;;5.30;3.97;;;;;;;;;;5033416;28;20100;-73
2023/09/04 09:08:09;;;;;;;7.22;4.20;;;;;;;;;;5031729;28;20171;-74
2023/09/04 09:10:35;;;;;;;4.68;3.95;;;;;;;;;;5032695;28;20445;-72
2023/09/04 09:13:01;;;;;;;6.00;4.45;;;;;;;;;;5032513;28;20533;-75
2023/09/04 09:15:30;;;;;;;4.65;3.88;;;;;;;;;;5011871;28;20030;-74
2023/09/04 09:17:57;;;;;;;5.47;3.80;;;;;;;;;;5021908;28;20124;-73
2023/09/04 09:20:31;;;;;;;5.28;4.65;;;;;;;;;;5023641;28;20017;-73
2023/09/04 09:23:00;;;;;;;5.22;3.40;;;;;;;;;;5020324;28;20037;-75
2023/09/04 09:25:29;;;;;;;6.43;5.13;;;;;;;;;;5027265;28;20080;-73
2023/09/04 09:31:45;;;;;;;5.97;4.60;;;;;;;;;;4991764;28;20036;-74
2023/09/04 09:34:14;;;;;;;8.45;4.85;;;;;;;;;;4992382;28;20134;-73
2023/09/04 09:36:40;;;;;;;6.53;5.05;;;;;;;;;;4992104;28;20441;-74
2023/09/04 09:39:06;;;;;;;5.15;4.57;;;;;;;;;;4991671;28;20054;-74
2023/09/04 09:41:32;;;;;;;5.60;4.93;;;;;;;;;;4992499;28;20026;-72
2023/09/04 09:44:02;;;;;;;6.55;4.85;;;;;;;;;;4992137;28;20034;-74
2023/09/04 09:46:28;;;;;;;10.07;5.50;;;;;;;;;;4990655;28;20401;-73
2023/09/04 09:48:54;;;;;;;7.95;6.05;;;;;;;;;;4989493;28;20040;-73
2023/09/04 09:55:28;;;;;;;10.05;5.97;;;;;;;;;;5007449;28;20232;-73
2023/09/04 09:57:55;;;;;;;9.38;6.30;;;;;;;;;;5007788;28;20091;-73
2023/09/04 10:00:21;;;;;;;6.80;5.25;;;;;;;;;;4990771;28;20542;-72
2023/09/04 10:02:47;;;;;;;9.35;5.38;;;;;;;;;;4991207;28;20030;-73
2023/09/04 10:05:13;;;;;;;9.98;6.00;;;;;;;;;;4991936;28;20030;-75
2023/09/04 10:07:40;;;;;;;7.28;5.45;;;;;;;;;;4989687;28;20460;-75
2023/09/04 10:10:07;;;;;;;7.70;5.70;;;;;;;;;;4991677;28;20413;-75
2023/09/04 10:12:42;;;;;;;9.77;5.90;;;;;;;;;;4990305;28;20146;-74
2023/09/04 10:15:08;;;;;;;6.53;5.45;;;;;;;;;;4990480;28;20046;-72
2023/09/04 10:17:40;;;;;;;7.68;5.32;;;;;;;;;;4992684;28;20034;-73
2023/09/04 10:20:07;;;;;;;7.60;5.40;;;;;;;;;;4996388;28;20030;-74
2023/09/04 10:22:45;;;;;;;8.57;5.47;;;;;;;;;;4997490;28;20025;-74
2023/09/04 10:25:51;;;;;;;6.63;5.05;;;;;;;;;;4994394;28;20046;-73
2023/09/04 10:28:35;;;;;;;7.75;5.88;;;;;;;;;;4994261;28;20042;-73
2023/09/04 10:31:01;;;;;;;7.15;5.25;;;;;;;;;;4992624;28;20034;-72
2023/09/04 10:33:27;;;;;;;7.68;6.10;;;;;;;;;;4992005;28;20034;-71
2023/09/04 10:35:54;;;;;;;6.25;5.63;;;;;;;;;;4990491;28;20034;-73
2023/09/04 10:38:22;;;;;;;7.80;5.50;;;;;;;;;;4991854;28;20040;-72
2023/09/04 10:40:49;;;;;;;8.30;5.82;;;;;;;;;;4970835;28;29369;-72
2023/09/04 10:43:14;;;;;;;6.68;5.68;;;;;;;;;;5010614;28;20170;-73
2023/09/04 10:45:40;;;;;;;7.75;5.93;;;;;;;;;;5032754;28;20138;-73
2023/09/04 10:48:06;;;;;;;10.57;6.50;;;;;;;;;;5031256;28;20025;-74
2023/09/04 10:50:36;;;;;;;7.97;5.50;;;;;;;;;;5029614;28;20033;-73
2023/09/04 10:53:05;;;;;;;11.13;7.10;;;;;;;;;;5031006;28;20021;-74
2023/09/04 10:55:38;;;;;;;8.93;6.10;;;;;;;;;;5030883;28;20144;-72
2023/09/04 10:58:08;;;;;;;8.45;5.18;;;;;;;;;;5031964;28;20045;-73
2023/09/04 11:00:35;;;;;;;9.32;5.70;;;;;;;;;;5031591;28;20056;-74
2023/09/04 11:03:23;;;;;;;8.80;6.38;;;;;;;;;;5032863;28;20126;-73
2023/09/04 11:06:07;;;;;;;8.90;6.43;;;;;;;;;;5036066;28;20449;-74
2023/09/04 11:08:40;;;;;;;9.23;6.88;;;;;;;;;;5036768;28;20033;-74
2023/09/04 11:11:08;;;;;;;14.00;7.43;;;;;;;;;;5033404;28;20487;-75
2023/09/04 11:13:37;;;;;;;10.98;7.10;;;;;;;;;;5032337;28;20025;-74
2023/09/04 11:16:06;;;;;;;12.73;7.07;;;;;;;;;;5034271;28;20044;-73
2023/09/04 11:18:34;;;;;;;8.48;6.32;;;;;;;;;;5033388;28;20124;-73
2023/09/04 11:21:00;;;;;;;9.40;7.10;;;;;;;;;;5031662;28;20391;-73
2023/09/04 11:23:29;;;;;;;12.55;7.38;;;;;;;;;;5029476;28;20532;-74
2023/09/04 11:25:56;;;;;;;10.63;7.43;;;;;;;;;;5030526;28;20111;-75
2023/09/04 11:28:23;;;;;;;9.95;7.00;;;;;;;;;;5020612;28;20030;-74
2023/09/04 11:30:59;;;;;;;9.20;7.38;;;;;;;;;;5022081;28;20033;-73
2023/09/04 11:33:27;;;;;;;9.00;7.15;;;;;;;;;;5021344;28;20056;-74
2023/09/04 11:36:06;;;;;;;7.72;6.03;;;;;;;;;;5035406;28;20052;-73
2023/09/04 11:38:34;;;;;;;8.52;6.80;;;;;;;;;;5011970;28;20037;-74
2023/09/04 11:41:03;;;;;;;10.05;7.55;;;;;;;;;;5017912;28;20009;-72
2023/09/04 11:43:29;;;;;;;7.63;6.82;;;;;;;;;;5022854;28;20044;-73
2023/09/04 11:45:55;;;;;;;8.55;7.28;;;;;;;;;;5031959;28;20559;-74
2023/09/04 11:48:26;;;;;;;9.65;7.18;;;;;;;;;;5035090;28;20068;-73
2023/09/04 11:50:57;;;;;;;9.93;7.38;;;;;;;;;;5035635;28;20053;-73
2023/09/04 11:53:25;;;;;;;7.93;5.18;;;;;;;;;;5036083;28;20052;-75
2023/09/04 11:55:51;;;;;;;14.18;6.57;;;;;;;;;;5035622;28;20045;-74
2023/09/04 11:58:17;;;;;;;7.25;5.30;;;;;;;;;;5028125;28;20034;-73
2023/09/04 12:00:45;;;;;;;8.43;5.60;;;;;;;;;;5027243;28;20071;-74
2023/09/04 12:03:11;;;;;;;15.45;6.63;;;;;;;;;;5017420;28;20041;-74
2023/09/04 12:05:37;;;;;;;11.55;6.47;;;;;;;;;;5005727;28;20026;-73
2023/09/04 12:08:04;;;;;;;6.18;4.72;;;;;;;;;;5001311;28;20131;-72
2023/09/04 12:10:33;;;;;;;8.80;6.07;;;;;;;;;;5014251;28;20037;-73
2023/09/04 12:12:59;;;;;;;10.48;5.97;;;;;;;;;;5014767;28;20520;-72
2023/09/04 12:15:26;;;;;;;12.23;6.07;;;;;;;;;;5020030;28;20033;-74
2023/09/04 12:17:52;;;;;;;9.40;4.93;;;;;;;;;;5013553;28;20025;-75
2023/09/04 12:20:18;;;;;;;11.45;5.85;;;;;;;;;;5015036;28;20522;-73
2023/09/04 12:22:54;;;;;;;11.85;5.80;;;;;;;;;;5013533;28;20072;-75
2023/09/04 12:25:21;;;;;;;9.82;5.72;;;;;;;;;;5014851;28;20040;-73
2023/09/04 12:27:48;;;;;;;8.73;4.63;;;;;;;;;;5014788;28;20038;-74
2023/09/04 12:30:14;;;;;;;11.32;4.93;;;;;;;;;;5013855;28;20077;-74
2023/09/04 12:32:39;;;;;;;8.40;4.63;;;;;;;;;;5029810;28;20058;-74
2023/09/04 12:35:06;;;;;;;7.63;5.13;;;;;;;;;;5000937;28;20442;-75
2023/09/04 12:37:38;;;;;;;7.28;4.32;;;;;;;;;;4992985;28;20023;-74
2023/09/04 12:40:05;;;;;;;6.00;3.85;;;;;;;;;;4992817;28;20049;-73
2023/09/04 12:42:31;;;;;;;12.48;5.60;;;;;;;;;;4993279;28;20026;-75
2023/09/04 12:44:57;;;;;;;5.72;3.78;;;;;;;;;;4994124;28;20104;-74
2023/09/04 12:47:22;;;;;;;10.18;4.70;;;;;;;;;;4994714;28;20383;-73
2023/09/04 12:49:49;;;;;;;6.95;3.72;;;;;;;;;;4994622;28;20034;-75
2023/09/04 12:52:14;;;;;;;6.68;3.53;;;;;;;;;;4994330;28;20026;-75
2023/09/04 12:54:40;;;;;;;4.97;3.72;;;;;;;;;;4993119;28;20421;-74
2023/09/04 12:57:06;;;;;;;8.93;4.50;;;;;;;;;;4994346;28;20034;-73
2023/09/04 12:59:33;;;;;;;4.25;3.30;;;;;;;;;;4993183;28;20125;-75
2023/09/04 13:01:58;;;;;;;4.95;3.35;;;;;;;;;;5009033;28;20121;-75
2023/09/04 13:04:24;;;;;;;5.13;3.58;;;;;;;;;;4993973;28;20039;-74
2023/09/04 13:06:51;;;;;;;8.85;3.35;;;;;;;;;;4993125;28;20236;-76
2023/09/04 13:09:17;;;;;;;7.50;4.53;;;;;;;;;;4994700;28;20113;-74
2023/09/04 13:11:43;;;;;;;4.50;3.20;;;;;;;;;;4994131;28;20113;-75
2023/09/04 13:14:08;;;;;;;4.90;3.38;;;;;;;;;;4994132;28;20085;-74
2023/09/04 13:16:34;;;;;;;4.00;3.10;;;;;;;;;;4993743;28;20500;-76
2023/09/04 13:19:00;;;;;;;4.75;3.53;;;;;;;;;;4993683;28;20077;-74
2023/09/04 13:21:27;;;;;;;6.10;3.97;;;;;;;;;;4993726;28;20026;-73
2023/09/04 13:23:53;;;;;;;5.30;4.28;;;;;;;;;;4994064;28;20457;-73
2023/09/04 13:26:19;;;;;;;8.27;4.40;;;;;;;;;;4993379;28;20062;-72
2023/09/04 13:28:45;;;;;;;6.10;4.35;;;;;;;;;;4993766;28;20034;-72
2023/09/04 13:31:13;;;;;;;6.50;4.93;;;;;;;;;;4993251;28;20134;-73
2023/09/04 13:33:40;;;;;;;5.57;4.82;;;;;;;;;;4993158;28;20034;-75
2023/09/04 13:36:05;;;;;;;6.45;4.90;;;;;;;;;;4993352;28;20026;-72
2023/09/04 13:38:31;;;;;;;8.82;5.53;;;;;;;;;;4991640;28;20166;-72
2023/09/04 13:40:57;;;;;;;8.93;4.97;;;;;;;;;;4993152;28;20030;-73
2023/09/04 13:43:23;;;;;;;6.88;5.20;;;;;;;;;;4991795;28;20092;-74
2023/09/04 13:45:49;;;;;;;5.78;4.40;;;;;;;;;;4992220;28;20062;-73
2023/09/04 13:48:15;;;;;;;6.85;4.78;;;;;;;;;;4991817;28;20034;-74
2023/09/04 13:50:41;;;;;;;7.30;5.50;;;;;;;;;;5006016;28;20392;-74
2023/09/04 13:53:06;;;;;;;5.47;3.78;;;;;;;;;;5004516;28;20029;-72
2023/09/04 13:55:32;;;;;;;6.90;5.07;;;;;;;;;;4992400;28;20387;-73
2023/09/04 13:57:58;;;;;;;6.32;4.65;;;;;;;;;;4991803;28;20038;-74
2023/09/04 14:00:24;;;;;;;8.27;4.55;;;;;;;;;;4993120;28;20070;-75
2023/09/04 14:02:50;;;;;;;7.82;5.30;;;;;;;;;;5024944;28;20049;-74
2023/09/04 14:05:16;;;;;;;9.40;5.28;;;;;;;;;;5032025;28;20083;-73
2023/09/04 14:07:42;;;;;;;10.75;5.88;;;;;;;;;;5032277;28;20029;-73
2023/09/04 14:10:08;;;;;;;8.48;5.05;;;;;;;;;;5031108;28;20344;-73
2023/09/04 14:12:35;;;;;;;10.18;4.90;;;;;;;;;;5020988;28;20105;-73
2023/09/04 14:15:02;;;;;;;7.47;4.63;;;;;;;;;;5012323;28;20280;-73
2023/09/04 14:17:28;;;;;;;7.30;4.95;;;;;;;;;;5011722;28;20041;-73
2023/09/04 14:19:55;;;;;;;8.93;4.82;;;;;;;;;;5011980;28;20022;-73
2023/09/04 14:22:21;;;;;;;10.73;5.30;;;;;;;;;;5000523;28;20050;-74
2023/09/04 14:24:46;;;;;;;10.30;5.53;;;;;;;;;;5007577;28;20030;-71
2023/09/04 14:27:12;;;;;;;7.13;4.75;;;;;;;;;;4992727;28;20516;-73
2023/09/04 14:29:39;;;;;;;8.15;4.60;;;;;;;;;;4990767;28;20118;-74
2023/09/04 14:32:05;;;;;;;6.85;5.03;;;;;;;;;;4991599;28;20485;-72
2023/09/04 14:34:34;;;;;;;7.13;4.60;;;;;;;;;;4975244;28;20035;-72
2023/09/04 14:37:00;;;;;;;8.10;4.90;;;;;;;;;;4990912;28;20030;-73
2023/09/04 14:39:25;;;;;;;12.43;4.82;;;;;;;;;;5015703;28;20018;-72
2023/09/04 14:41:51;;;;;;;6.57;4.88;;;;;;;;;;5037473;28;20048;-73
2023/09/04 14:44:17;;;;;;;7.43;4.22;;;;;;;;;;5021406;28;20033;-73
2023/09/04 14:46:43;;;;;;;6.53;4.50;;;;;;;;;;5034718;28;20033;-73